createdAt,value
2018-03-04T00:01:59.303Z,-3.00
2018-03-04T00:04:25.277Z,-2.76
2018-03-04T00:06:51.657Z,-3.03
2018-03-04T00:09:17.585Z,-2.76
2018-03-04T00:11:43.512Z,-2.40
2018-03-04T00:14:09.456Z,-2.76
2018-03-04T00:16:35.417Z,-2.60
2018-03-04T00:19:01.391Z,-2.47
2018-03-04T00:21:27.361Z,-2.51
2018-03-04T00:23:53.295Z,-2.75
2018-03-04T00:26:19.264Z,-2.42
2018-03-04T00:28:45.206Z,-2.87
2018-03-04T00:31:11.147Z,-2.98
2018-03-04T00:33:37.093Z,-2.73
2018-03-04T00:36:03.044Z,-2.81
2018-03-04T00:38:28.969Z,-2.57
2018-03-04T00:40:54.907Z,-2.57
2018-03-04T00:43:20.842Z,-2.74
2018-03-04T00:45:46.799Z,-2.76
2018-03-04T00:48:12.737Z,-3.05
2018-03-04T00:50:38.672Z,-3.28
2018-03-04T00:53:04.594Z,-2.63
2018-03-04T00:55:30.531Z,-3.38
2018-03-04T00:57:56.482Z,-3.46
2018-03-04T01:00:22.418Z,-2.89
2018-03-04T01:02:48.352Z,-2.70
2018-03-04T01:05:14.294Z,-2.70
2018-03-04T01:07:40.245Z,-2.55
2018-03-04T01:10:06.197Z,-3.12
2018-03-04T01:12:32.126Z,-2.53
2018-03-04T01:14:58.082Z,-2.67
2018-03-04T01:17:24.013Z,-2.74
2018-03-04T01:19:49.953Z,-2.74
2018-03-04T01:22:15.876Z,-2.71
2018-03-04T01:24:41.820Z,-2.85
2018-03-04T01:27:07.749Z,-2.67
2018-03-04T01:29:33.686Z,-2.34
2018-03-04T01:31:59.648Z,-2.51
2018-03-04T01:34:25.595Z,-2.42
2018-03-04T01:36:51.542Z,-2.79
2018-03-04T01:39:17.477Z,-2.64
2018-03-04T01:41:43.396Z,-2.44
2018-03-04T01:44:09.358Z,-3.28
2018-03-04T01:46:35.309Z,-2.97
2018-03-04T01:49:01.254Z,-2.58
2018-03-04T01:51:27.196Z,-2.60
2018-03-04T01:53:55.834Z,-2.81
2018-03-04T01:56:21.922Z,-2.53
2018-03-04T01:58:47.858Z,-2.92
2018-03-04T02:01:13.787Z,-2.65
2018-03-04T02:03:39.732Z,-2.72
2018-03-04T02:06:05.674Z,-2.66
2018-03-04T02:08:31.602Z,-2.51
2018-03-04T02:10:57.564Z,-2.47
2018-03-04T02:13:23.502Z,-2.51
2018-03-04T02:15:49.464Z,-2.48
2018-03-04T02:18:15.404Z,-2.60
2018-03-04T02:20:41.750Z,-2.34
2018-03-04T02:23:07.710Z,-2.53
2018-03-04T02:25:33.665Z,-2.50
2018-03-04T02:27:59.594Z,-2.56
2018-03-04T02:30:25.555Z,-2.45
2018-03-04T02:32:51.487Z,-2.47
2018-03-04T02:35:17.418Z,-2.33
2018-03-04T02:37:43.338Z,-2.15
2018-03-04T02:40:09.272Z,-2.28
2018-03-04T02:42:35.229Z,-2.82
2018-03-04T02:45:01.174Z,-2.90
2018-03-04T02:47:27.114Z,-2.59
2018-03-04T02:49:53.053Z,-2.92
2018-03-04T02:52:19.024Z,-2.50
2018-03-04T02:54:44.958Z,-2.88
2018-03-04T02:57:10.912Z,-2.72
2018-03-04T02:59:36.835Z,-2.83
2018-03-04T03:02:02.803Z,-2.83
2018-03-04T03:04:28.742Z,-2.46
2018-03-04T03:06:54.694Z,-2.46
2018-03-04T03:09:20.629Z,-2.45
2018-03-04T03:11:46.562Z,-2.30
2018-03-04T03:14:12.506Z,-2.70
2018-03-04T03:16:38.446Z,-2.79
2018-03-04T03:19:04.400Z,-2.63
2018-03-04T03:21:30.352Z,-2.61
2018-03-04T03:23:56.298Z,-2.56
2018-03-04T03:26:22.238Z,-2.60
2018-03-04T03:28:48.166Z,-2.40
2018-03-04T03:31:14.103Z,-2.11
2018-03-04T03:33:40.047Z,-2.32
2018-03-04T03:36:05.990Z,-2.40
2018-03-04T03:38:31.910Z,-2.10
2018-03-04T03:40:57.848Z,-2.54
2018-03-04T03:43:23.857Z,-2.66
2018-03-04T03:45:49.792Z,-2.43
2018-03-04T03:48:15.713Z,-2.69
2018-03-04T03:50:41.657Z,-2.76
2018-03-04T03:53:07.590Z,-2.04
2018-03-04T03:55:33.543Z,-2.11
2018-03-04T03:57:59.495Z,-2.56
2018-03-04T04:00:25.438Z,-2.28
2018-03-04T04:02:51.406Z,-1.96
2018-03-04T04:05:17.326Z,-2.25
2018-03-04T04:07:43.254Z,-2.54
2018-03-04T04:10:09.193Z,-2.04
2018-03-04T04:12:35.122Z,-2.08
2018-03-04T04:15:01.051Z,-2.07
2018-03-04T04:17:26.986Z,-2.07
2018-03-04T04:19:52.935Z,-2.13
2018-03-04T04:28:21.013Z,-2.09
2018-03-04T04:30:46.941Z,-1.84
2018-03-04T04:33:12.863Z,-2.00
2018-03-04T04:35:38.785Z,-1.90
2018-03-04T04:38:04.719Z,-2.10
2018-03-04T04:40:30.654Z,-1.89
2018-03-04T04:42:56.579Z,-2.25
2018-03-04T04:45:22.530Z,-2.05
2018-03-04T04:47:48.453Z,-2.16
2018-03-04T04:50:14.421Z,-2.06
2018-03-04T04:52:40.469Z,-1.81
2018-03-04T04:55:06.408Z,-1.75
2018-03-04T04:57:32.339Z,-1.76
2018-03-04T04:59:58.261Z,-1.91
2018-03-04T05:02:24.183Z,-1.66
2018-03-04T05:04:50.119Z,-1.80
2018-03-04T05:07:16.064Z,-1.97
2018-03-04T05:09:42.046Z,-2.13
2018-03-04T05:12:07.970Z,-1.54
2018-03-04T05:14:33.972Z,-1.74
2018-03-04T05:16:59.907Z,-1.71
2018-03-04T05:19:25.841Z,-1.86
2018-03-04T05:21:51.769Z,-1.46
2018-03-04T05:24:17.709Z,-1.86
2018-03-04T05:26:43.645Z,-1.60
2018-03-04T05:29:09.648Z,-1.66
2018-03-04T05:31:35.585Z,-1.42
2018-03-04T05:34:01.547Z,-1.58
2018-03-04T05:36:27.486Z,-1.65
2018-03-04T05:38:53.432Z,-1.84
2018-03-04T05:41:19.369Z,-1.67
2018-03-04T05:43:45.289Z,-1.98
2018-03-04T05:46:11.236Z,-1.85
2018-03-04T05:48:37.163Z,-1.63
2018-03-04T05:51:03.117Z,-1.48
2018-03-04T05:53:29.055Z,-1.51
2018-03-04T05:55:55.003Z,-1.91
2018-03-04T05:58:20.937Z,-1.69
2018-03-04T06:00:46.867Z,-1.58
2018-03-04T06:03:12.804Z,-2.08
2018-03-04T06:05:38.727Z,-1.95
2018-03-04T06:08:04.735Z,-1.82
2018-03-04T06:10:30.666Z,-1.74
2018-03-04T06:12:56.604Z,-1.86
2018-03-04T06:15:22.877Z,-1.99
2018-03-04T06:17:48.807Z,-1.72
2018-03-04T06:20:14.762Z,-1.79
2018-03-04T06:22:40.688Z,-1.74
2018-03-04T06:25:06.645Z,-1.89
2018-03-04T06:27:32.721Z,-1.66
2018-03-04T06:29:58.672Z,-1.71
2018-03-04T06:32:24.629Z,-1.62
2018-03-04T06:34:50.586Z,-2.00
2018-03-04T06:37:16.525Z,-2.06
2018-03-04T06:39:42.506Z,-1.81
2018-03-04T06:42:08.436Z,-1.97
2018-03-04T06:44:34.377Z,-1.52
2018-03-04T06:47:00.312Z,-1.63
2018-03-04T06:49:26.369Z,-1.84
2018-03-04T06:51:52.307Z,-2.03
2018-03-04T06:54:18.271Z,-1.81
2018-03-04T06:56:44.368Z,-1.92
2018-03-04T06:59:10.331Z,-1.48
2018-03-04T07:01:36.302Z,-1.31
2018-03-04T07:04:02.270Z,-1.27
2018-03-04T07:06:28.210Z,-1.18
2018-03-04T07:08:54.469Z,-1.30
2018-03-04T07:11:20.491Z,-1.60
2018-03-04T07:13:46.421Z,-1.69
2018-03-04T07:16:12.378Z,-1.28
2018-03-04T07:18:38.313Z,-1.54
2018-03-04T07:21:04.294Z,-1.29
2018-03-04T07:23:30.296Z,-1.07
2018-03-04T07:25:56.207Z,-1.01
2018-03-04T07:28:22.134Z,-1.02
2018-03-04T07:30:48.081Z,-1.32
2018-03-04T07:33:14.022Z,-1.13
2018-03-04T07:35:39.956Z,-0.89
2018-03-04T07:38:05.883Z,-0.55
2018-03-04T07:40:32.914Z,-0.62
2018-03-04T07:42:58.860Z,-0.73
2018-03-04T07:45:24.780Z,-0.48
2018-03-04T07:47:50.794Z,-0.54
2018-03-04T07:50:16.726Z,0.06
2018-03-04T07:52:42.720Z,-0.43
2018-03-04T07:55:08.649Z,-0.45
2018-03-04T07:57:34.606Z,-0.55
2018-03-04T08:00:00.552Z,-0.22
2018-03-04T08:02:26.493Z,-0.17
2018-03-04T08:04:52.452Z,-0.22
2018-03-04T08:07:18.399Z,-0.18
2018-03-04T08:09:44.338Z,-0.44
2018-03-04T08:12:10.280Z,-0.78
2018-03-04T08:14:36.226Z,-0.88
2018-03-04T08:17:02.158Z,-0.47
2018-03-04T08:19:28.094Z,-0.08
2018-03-04T08:21:54.039Z,0.16
2018-03-04T08:24:19.988Z,0.01
2018-03-04T08:26:45.922Z,0.09
2018-03-04T08:29:11.869Z,0.18
2018-03-04T08:31:37.838Z,-0.22
2018-03-04T08:34:03.761Z,0.48
2018-03-04T08:36:29.730Z,0.20
2018-03-04T08:38:56.674Z,0.44
2018-03-04T08:41:22.695Z,0.55
2018-03-04T08:43:48.626Z,0.47
2018-03-04T08:46:14.570Z,0.71
2018-03-04T08:48:40.498Z,0.91
2018-03-04T08:51:06.442Z,1.17
2018-03-04T08:53:32.376Z,1.02
2018-03-04T08:55:58.323Z,0.98
2018-03-04T08:58:24.260Z,1.05
2018-03-04T09:00:50.207Z,0.70
2018-03-04T09:03:16.134Z,1.09
2018-03-04T09:05:42.110Z,1.55
2018-03-04T09:08:08.053Z,1.41
2018-03-04T09:10:34.002Z,1.44
2018-03-04T09:12:59.931Z,1.84
2018-03-04T09:15:25.865Z,2.12
2018-03-04T09:17:51.782Z,2.00
2018-03-04T09:20:17.706Z,1.71
2018-03-04T09:22:43.651Z,1.57
2018-03-04T09:25:09.594Z,1.88
2018-03-04T09:27:35.616Z,2.18
2018-03-04T09:30:02.559Z,2.01
2018-03-04T09:32:28.531Z,1.93
2018-03-04T09:34:54.470Z,1.98
2018-03-04T09:37:20.426Z,2.13
2018-03-04T09:39:46.350Z,2.44
2018-03-04T09:42:12.305Z,2.25
2018-03-04T09:44:38.243Z,2.39
2018-03-04T09:47:04.222Z,2.32
2018-03-04T09:49:30.146Z,2.71
2018-03-04T09:51:56.442Z,2.51
2018-03-04T09:54:22.408Z,2.66
2018-03-04T09:56:48.387Z,2.93
2018-03-04T09:59:14.391Z,2.64
2018-03-04T10:01:40.338Z,3.04
2018-03-04T10:04:06.277Z,2.87
2018-03-04T10:06:32.246Z,3.08
2018-03-04T10:08:58.222Z,2.80
2018-03-04T10:11:25.176Z,2.77
2018-03-04T10:13:51.120Z,2.81
2018-03-04T10:16:17.078Z,2.57
2018-03-04T10:18:43.013Z,2.77
2018-03-04T10:21:09.099Z,2.83
2018-03-04T10:23:35.040Z,2.95
2018-03-04T10:26:00.999Z,3.36
2018-03-04T10:28:26.964Z,3.21
2018-03-04T10:30:52.908Z,3.44
2018-03-04T10:33:18.841Z,3.73
2018-03-04T10:35:44.810Z,3.51
2018-03-04T10:38:10.789Z,3.34
2018-03-04T10:40:36.771Z,3.35
2018-03-04T10:43:02.732Z,3.63
2018-03-04T10:45:28.671Z,3.58
2018-03-04T10:47:54.616Z,3.60
2018-03-04T10:50:20.598Z,3.73
2018-03-04T10:52:46.528Z,3.75
2018-03-04T10:55:12.495Z,3.71
2018-03-04T10:57:43.086Z,3.90
2018-03-04T11:00:09.348Z,3.80
2018-03-04T11:02:35.409Z,3.91
2018-03-04T11:05:01.393Z,3.87
2018-03-04T11:07:27.331Z,3.84
2018-03-04T11:09:53.386Z,3.97
2018-03-04T11:12:19.351Z,4.04
2018-03-04T11:14:45.319Z,4.03
2018-03-04T11:17:11.284Z,4.15
2018-03-04T11:19:37.233Z,4.13
2018-03-04T11:22:04.408Z,4.23
2018-03-04T11:24:30.350Z,4.43
2018-03-04T11:26:56.321Z,4.21
2018-03-04T11:29:22.324Z,4.34
2018-03-04T11:31:48.271Z,4.27
2018-03-04T11:34:14.212Z,4.15
2018-03-04T11:36:40.182Z,4.25
2018-03-04T11:39:06.294Z,4.21
2018-03-04T11:41:32.266Z,4.04
2018-03-04T11:43:58.305Z,3.86
2018-03-04T11:46:24.308Z,4.18
2018-03-04T11:48:50.330Z,4.16
2018-03-04T11:51:16.364Z,4.31
2018-03-04T11:53:42.380Z,4.60
2018-03-04T11:56:08.525Z,4.43
2018-03-04T11:58:34.527Z,4.48
2018-03-04T12:01:00.554Z,4.72
2018-03-04T12:03:26.591Z,4.31
2018-03-04T12:05:52.619Z,4.30
2018-03-04T12:08:18.642Z,4.44
2018-03-04T12:10:44.665Z,4.61
2018-03-04T12:13:11.691Z,4.36
2018-03-04T12:15:37.737Z,4.46
2018-03-04T12:18:03.779Z,4.52
2018-03-04T12:20:29.826Z,4.68
2018-03-04T12:22:56.811Z,4.59
2018-03-04T12:25:22.920Z,4.60
2018-03-04T12:27:48.859Z,4.65
2018-03-04T12:30:14.899Z,4.49
2018-03-04T12:32:41.947Z,4.30
2018-03-04T12:35:07.977Z,4.31
2018-03-04T12:37:34.923Z,4.40
2018-03-04T12:40:01.958Z,4.48
2018-03-04T12:42:28.010Z,4.40
2018-03-04T12:44:54.024Z,4.33
2018-03-04T12:47:20.028Z,4.40
2018-03-04T12:49:46.998Z,4.34
2018-03-04T12:52:14.014Z,4.26
2018-03-04T12:54:40.063Z,4.46
2018-03-04T12:57:07.099Z,4.45
2018-03-04T12:59:33.125Z,4.40
2018-03-04T13:01:59.148Z,4.43
2018-03-04T13:04:25.193Z,4.37
2018-03-04T13:06:51.270Z,4.51
2018-03-04T13:09:18.326Z,4.60
2018-03-04T13:16:20.187Z,4.59
2018-03-04T13:18:46.156Z,4.65
2018-03-04T13:21:17.322Z,4.65
2018-03-04T13:23:46.615Z,4.67
2018-03-04T13:26:12.659Z,4.59
2018-03-04T13:28:39.676Z,4.47
2018-03-04T13:31:06.637Z,4.60
2018-03-04T13:33:33.682Z,4.66
2018-03-04T13:36:03.332Z,4.89
2018-03-04T13:38:29.329Z,4.86
2018-03-04T13:40:55.346Z,4.87
2018-03-04T13:43:21.334Z,4.52
2018-03-04T13:45:47.410Z,4.71
2018-03-04T13:48:13.423Z,4.80
2018-03-04T13:50:39.435Z,4.74
2018-03-04T13:53:05.485Z,4.79
2018-03-04T13:55:31.502Z,4.84
2018-03-04T13:57:57.499Z,4.78
2018-03-04T14:00:23.514Z,4.63
2018-03-04T14:02:50.469Z,4.83
2018-03-04T14:05:16.487Z,4.63
2018-03-04T14:07:42.584Z,4.81
2018-03-04T14:10:08.547Z,4.76
2018-03-04T14:12:34.595Z,4.74
2018-03-04T14:15:00.583Z,4.67
2018-03-04T14:17:26.620Z,4.57
2018-03-04T14:19:52.634Z,4.51
2018-03-04T14:22:19.576Z,4.66
2018-03-04T14:24:45.603Z,4.70
2018-03-04T14:27:11.621Z,4.82
2018-03-04T14:29:37.659Z,4.69
2018-03-04T14:32:04.696Z,4.86
2018-03-04T14:34:30.724Z,4.90
2018-03-04T14:36:56.824Z,4.99
2018-03-04T14:39:22.772Z,4.94
2018-03-04T14:41:49.731Z,5.01
2018-03-04T14:44:15.745Z,4.84
2018-03-04T14:46:41.763Z,4.88
2018-03-04T14:49:07.792Z,4.71
2018-03-04T14:51:33.880Z,4.75
2018-03-04T14:54:00.856Z,4.86
2018-03-04T14:56:26.885Z,4.79
2018-03-04T14:58:53.870Z,4.62
2018-03-04T15:01:20.877Z,4.81
2018-03-04T15:03:47.926Z,4.58
2018-03-04T15:06:13.942Z,4.66
2018-03-04T15:08:39.979Z,4.63
2018-03-04T15:11:05.993Z,4.57
2018-03-04T15:13:32.030Z,4.58
2018-03-04T15:15:58.078Z,4.52
2018-03-04T15:18:24.078Z,4.49
2018-03-04T15:20:51.136Z,4.58
2018-03-04T15:23:17.143Z,4.55
2018-03-04T15:25:43.181Z,4.52
2018-03-04T15:28:09.217Z,4.55
2018-03-04T15:30:36.250Z,4.46
2018-03-04T15:33:02.284Z,4.63
2018-03-04T15:35:28.305Z,4.66
2018-03-04T15:37:54.320Z,4.56
2018-03-04T15:40:20.360Z,4.48
2018-03-04T15:42:46.423Z,4.50
2018-03-04T15:45:12.389Z,4.35
2018-03-04T15:47:38.407Z,4.47
2018-03-04T15:50:05.358Z,4.43
2018-03-04T15:52:31.416Z,4.58
2018-03-04T15:54:57.410Z,4.43
2018-03-04T15:57:23.467Z,4.43
2018-03-04T15:59:51.516Z,4.33
2018-03-04T16:02:17.545Z,4.21
2018-03-04T16:04:43.570Z,4.15
2018-03-04T16:07:14.486Z,4.25
2018-03-04T16:09:40.525Z,4.26
2018-03-04T16:12:07.567Z,4.30
2018-03-04T16:14:33.592Z,4.16
2018-03-04T16:16:59.614Z,4.01
2018-03-04T16:19:25.637Z,4.08
2018-03-04T16:21:51.662Z,4.08
2018-03-04T16:24:17.712Z,4.09
2018-03-04T16:26:43.793Z,3.94
2018-03-04T16:29:09.838Z,3.96
2018-03-04T16:31:35.851Z,3.78
2018-03-04T16:34:01.881Z,4.03
2018-03-04T16:36:27.930Z,4.15
2018-03-04T16:38:53.954Z,4.12
2018-03-04T16:41:19.948Z,3.94
2018-03-04T16:43:45.975Z,3.95
2018-03-04T16:46:13.261Z,4.03
2018-03-04T16:48:39.252Z,3.86
2018-03-04T16:51:05.272Z,3.92
2018-03-04T16:53:31.345Z,3.94
2018-03-04T16:55:57.319Z,3.84
2018-03-04T16:58:23.378Z,3.87
2018-03-04T17:00:49.376Z,3.97
2018-03-04T17:03:15.387Z,3.86
2018-03-04T17:05:41.420Z,3.91
2018-03-04T17:08:07.444Z,4.07
2018-03-04T17:10:33.477Z,3.78
2018-03-04T17:12:59.487Z,3.85
2018-03-04T17:15:25.529Z,3.86
2018-03-04T17:17:51.563Z,3.87
2018-03-04T17:20:17.577Z,3.63
2018-03-04T17:22:43.603Z,3.71
2018-03-04T17:25:09.629Z,3.74
2018-03-04T17:27:35.631Z,3.75
2018-03-04T17:30:01.658Z,3.75
2018-03-04T17:32:27.675Z,3.73
2018-03-04T17:34:53.722Z,3.57
2018-03-04T17:37:19.761Z,3.91
2018-03-04T17:39:45.795Z,3.75
2018-03-04T17:42:11.796Z,3.78
2018-03-04T17:44:37.821Z,3.83
2018-03-04T17:47:03.851Z,3.80
2018-03-04T17:49:29.866Z,3.77
2018-03-04T17:51:55.886Z,3.82
2018-03-04T17:54:21.947Z,3.57
2018-03-04T17:56:47.956Z,3.64
2018-03-04T17:59:13.948Z,3.80
2018-03-04T18:01:39.961Z,3.79
2018-03-04T18:04:06.004Z,3.72
2018-03-04T18:06:32.052Z,3.52
2018-03-04T18:08:59.126Z,3.62
2018-03-04T18:11:26.183Z,3.46
2018-03-04T18:13:52.164Z,3.63
2018-03-04T18:16:18.178Z,3.64
2018-03-04T18:18:44.223Z,3.70
2018-03-04T18:21:10.212Z,3.66
2018-03-04T18:23:37.177Z,3.56
2018-03-04T18:26:03.232Z,3.60
2018-03-04T18:28:29.211Z,3.70
2018-03-04T18:30:56.321Z,3.65
2018-03-04T18:33:22.305Z,3.53
2018-03-04T18:35:49.326Z,3.41
2018-03-04T18:38:15.380Z,3.44
2018-03-04T18:40:41.392Z,3.47
2018-03-04T18:43:09.381Z,3.52
2018-03-04T18:45:36.405Z,3.55
2018-03-04T18:48:02.449Z,3.60
2018-03-04T18:50:28.452Z,3.73
2018-03-04T18:52:54.462Z,3.42
2018-03-04T18:55:22.564Z,3.60
2018-03-04T18:57:48.597Z,3.51
2018-03-04T19:00:14.725Z,3.55
2018-03-04T19:02:40.722Z,3.13
2018-03-04T19:05:06.758Z,3.46
2018-03-04T19:07:33.808Z,3.54
2018-03-04T19:10:00.848Z,3.51
2018-03-04T19:12:26.868Z,3.50
2018-03-04T19:14:52.885Z,3.36
2018-03-04T19:17:18.916Z,3.50
2018-03-04T19:19:44.928Z,3.60
2018-03-04T19:22:11.987Z,3.42
2018-03-04T19:24:38.009Z,3.55
2018-03-04T19:27:04.048Z,3.51
2018-03-04T19:29:31.132Z,3.52
2018-03-04T19:31:57.113Z,3.73
2018-03-04T19:34:24.155Z,3.47
2018-03-04T19:36:50.175Z,3.33
2018-03-04T19:39:17.217Z,3.35
2018-03-04T19:41:43.248Z,3.26
2018-03-04T19:44:10.298Z,3.35
2018-03-04T19:46:36.907Z,3.16
2018-03-04T19:49:03.914Z,2.90
2018-03-04T19:51:29.926Z,3.09
2018-03-04T19:53:55.943Z,3.11
2018-03-04T19:56:21.959Z,3.37
2018-03-04T19:58:49.016Z,3.36
2018-03-04T20:01:14.994Z,3.44
2018-03-04T20:03:41.943Z,3.54
2018-03-04T20:06:07.890Z,3.29
2018-03-04T20:08:33.945Z,3.57
2018-03-04T20:11:00.974Z,3.67
2018-03-04T20:13:28.021Z,3.77
2018-03-04T20:15:54.032Z,3.60
2018-03-04T20:18:23.344Z,3.52
2018-03-04T20:20:49.398Z,3.73
2018-03-04T20:23:15.380Z,3.52
2018-03-04T20:25:41.415Z,3.50
2018-03-04T20:28:07.352Z,3.50
2018-03-04T20:33:06.056Z,3.59
2018-03-04T20:35:31.994Z,3.46
2018-03-04T20:37:57.915Z,3.72
2018-03-04T20:40:24.975Z,3.57
2018-03-04T20:42:50.950Z,3.65
2018-03-04T20:45:16.913Z,3.30
2018-03-04T20:47:42.857Z,3.48
2018-03-04T20:50:08.849Z,3.64
2018-03-04T20:52:34.841Z,3.81
2018-03-04T20:55:00.825Z,3.50
2018-03-04T20:57:27.854Z,3.50
2018-03-04T20:59:53.776Z,3.64
2018-03-04T21:02:19.714Z,3.49
2018-03-04T21:04:45.663Z,3.76
2018-03-04T21:07:11.730Z,3.53
2018-03-04T21:09:37.673Z,3.77
2018-03-04T21:12:03.635Z,3.75
2018-03-04T21:14:29.555Z,3.80
2018-03-04T21:16:55.494Z,3.68
2018-03-04T21:19:21.440Z,3.67
2018-03-04T21:21:47.399Z,3.81
2018-03-04T21:24:13.344Z,3.80
2018-03-04T21:26:39.283Z,3.64
2018-03-04T21:29:05.218Z,3.74
2018-03-04T21:31:31.218Z,3.60
2018-03-04T21:33:57.143Z,3.37
2018-03-04T21:36:23.153Z,3.39
2018-03-04T21:38:49.066Z,3.37
2018-03-04T21:41:15.029Z,3.70
2018-03-04T21:43:40.991Z,3.41
2018-03-04T21:46:06.937Z,3.39
2018-03-04T21:48:32.859Z,3.43
2018-03-04T21:50:58.835Z,3.23
2018-03-04T21:53:24.794Z,3.36
2018-03-04T21:55:50.722Z,3.32
2018-03-04T21:58:16.676Z,3.55
2018-03-04T22:00:42.597Z,3.63
2018-03-04T22:03:08.519Z,3.64
2018-03-04T22:05:34.480Z,3.60
2018-03-04T22:08:00.384Z,3.43
2018-03-04T22:10:26.320Z,3.43
2018-03-04T22:12:52.241Z,3.21
2018-03-04T22:15:18.171Z,3.10
2018-03-04T22:17:44.107Z,3.24
2018-03-04T22:20:10.031Z,2.99
2018-03-04T22:22:35.975Z,2.91
2018-03-04T22:25:01.918Z,3.09
2018-03-04T22:27:27.848Z,2.73
2018-03-04T22:29:53.790Z,2.64
2018-03-04T22:32:19.755Z,2.60
2018-03-04T22:34:45.675Z,2.94
2018-03-04T22:37:11.610Z,2.92
2018-03-04T22:39:37.561Z,2.58
2018-03-04T22:42:03.526Z,2.57
2018-03-04T22:44:29.472Z,2.39
2018-03-04T22:46:55.395Z,2.46
2018-03-04T22:49:21.430Z,2.33
2018-03-04T22:51:47.366Z,2.48
2018-03-04T22:54:13.287Z,2.29
2018-03-04T22:56:39.231Z,2.32
2018-03-04T22:59:05.308Z,2.17
2018-03-04T23:01:31.283Z,2.16
2018-03-04T23:03:57.222Z,2.09
2018-03-04T23:06:23.185Z,1.81
2018-03-04T23:08:49.107Z,1.81
2018-03-04T23:11:15.043Z,2.02
2018-03-04T23:13:40.969Z,2.19
2018-03-04T23:16:06.915Z,2.22
2018-03-04T23:18:32.841Z,1.90
2018-03-04T23:20:58.787Z,2.18
2018-03-04T23:23:24.715Z,2.27
2018-03-04T23:25:50.655Z,2.23
2018-03-04T23:28:16.582Z,2.05
2018-03-04T23:30:42.527Z,2.00
2018-03-04T23:33:08.455Z,2.27
2018-03-04T23:35:34.390Z,2.03
2018-03-04T23:38:00.314Z,1.92
2018-03-04T23:40:26.239Z,2.06
2018-03-04T23:42:52.202Z,1.84
2018-03-04T23:45:18.123Z,1.88
2018-03-04T23:47:44.074Z,2.00
2018-03-04T23:50:10.009Z,2.15
2018-03-04T23:52:35.951Z,2.21
2018-03-04T23:55:01.879Z,2.04
2018-03-04T23:57:27.813Z,2.33
2018-03-04T23:59:53.733Z,2.32
